createdAt,value
2022-08-01T00:00:28.602Z,1007.18
2022-08-01T00:01:28.594Z,1007.20
2022-08-01T00:02:28.602Z,1007.28
2022-08-01T00:03:28.586Z,1007.24
2022-08-01T00:04:28.543Z,1007.21
2022-08-01T00:05:28.528Z,1007.23
2022-08-01T00:06:28.583Z,1007.25
2022-08-01T00:07:28.511Z,1007.26
2022-08-01T00:08:28.505Z,1007.26
2022-08-01T00:09:28.510Z,1007.26
2022-08-01T00:10:28.503Z,1007.24
2022-08-01T00:11:28.487Z,1007.27
2022-08-01T00:12:28.483Z,1007.24
2022-08-01T00:13:28.440Z,1007.24
2022-08-01T00:14:32.506Z,1007.24
2022-08-01T00:15:28.473Z,1007.27
2022-08-01T00:16:28.478Z,1007.27
2022-08-01T00:17:28.403Z,1007.27
2022-08-01T00:18:28.380Z,1007.25
2022-08-01T00:19:28.378Z,1007.26
2022-08-01T00:20:28.387Z,1007.27
2022-08-01T00:21:28.372Z,1007.28
2022-08-01T00:22:28.336Z,1007.26
2022-08-01T00:23:28.336Z,1007.24
2022-08-01T00:24:28.310Z,1007.28
2022-08-01T00:25:33.874Z,1007.28
2022-08-01T00:26:28.397Z,1007.31
2022-08-01T00:27:28.275Z,1007.26
2022-08-01T00:28:28.273Z,1007.28
2022-08-01T00:30:12.331Z,1007.29
2022-08-01T00:30:28.259Z,1007.28
2022-08-01T00:31:28.261Z,1007.30
2022-08-01T00:32:28.273Z,1007.31
2022-08-01T00:33:28.225Z,1007.33
2022-08-01T00:34:28.201Z,1007.29
2022-08-01T00:35:28.208Z,1007.31
2022-08-01T00:36:28.192Z,1007.32
2022-08-01T00:37:28.176Z,1007.37
2022-08-01T00:38:28.182Z,1007.35
2022-08-01T00:39:28.162Z,1007.34
2022-08-01T00:40:28.141Z,1007.35
2022-08-01T00:41:28.169Z,1007.35
2022-08-01T00:42:28.127Z,1007.38
2022-08-01T00:43:28.095Z,1007.36
2022-08-01T00:44:28.092Z,1007.31
2022-08-01T00:45:28.077Z,1007.34
2022-08-01T00:46:28.099Z,1007.30
2022-08-01T00:47:28.082Z,1007.36
2022-08-01T00:48:28.050Z,1007.29
2022-08-01T00:49:28.119Z,1007.29
2022-08-01T00:50:28.023Z,1007.32
2022-08-01T00:51:28.046Z,1007.31
2022-08-01T00:52:28.008Z,1007.32
2022-08-01T00:53:28.007Z,1007.32
2022-08-01T00:54:28.002Z,1007.30
2022-08-01T00:55:27.998Z,1007.32
2022-08-01T00:56:27.971Z,1007.35
2022-08-01T00:58:02.622Z,1007.31
2022-08-01T00:58:27.969Z,1007.35
2022-08-01T00:59:27.938Z,1007.37
2022-08-01T01:00:27.967Z,1007.36
2022-08-01T01:01:39.182Z,1007.34
2022-08-01T01:02:27.891Z,1007.37
2022-08-01T01:03:56.347Z,1007.36
2022-08-01T01:04:27.867Z,1007.38
2022-08-01T01:05:27.854Z,1007.36
2022-08-01T01:06:28.928Z,1007.37
2022-08-01T01:07:27.848Z,1007.40
2022-08-01T01:08:27.815Z,1007.39
2022-08-01T01:09:27.845Z,1007.41
2022-08-01T01:10:27.798Z,1007.41
2022-08-01T01:11:27.820Z,1007.42
2022-08-01T01:12:27.811Z,1007.39
2022-08-01T01:13:27.767Z,1007.38
2022-08-01T01:14:27.767Z,1007.37
2022-08-01T01:15:27.796Z,1007.40
2022-08-01T01:16:27.756Z,1007.37
2022-08-01T01:17:49.508Z,1007.40
2022-08-01T01:18:27.744Z,1007.41
2022-08-01T01:19:27.698Z,1007.40
2022-08-01T01:20:27.681Z,1007.41
2022-08-01T01:21:27.712Z,1007.39
2022-08-01T01:22:27.654Z,1007.41
2022-08-01T01:23:27.659Z,1007.38
2022-08-01T01:24:27.654Z,1007.42
2022-08-01T01:25:27.641Z,1007.39
2022-08-01T01:26:27.667Z,1007.40
2022-08-01T01:27:27.622Z,1007.37
2022-08-01T01:28:27.588Z,1007.39
2022-08-01T01:29:27.593Z,1007.38
2022-08-01T01:30:27.598Z,1007.36
2022-08-01T01:31:27.574Z,1007.38
2022-08-01T01:32:30.898Z,1007.36
2022-08-01T01:33:27.546Z,1007.34
2022-08-01T01:34:27.524Z,1007.35
2022-08-01T01:35:27.509Z,1007.33
2022-08-01T01:36:27.568Z,1007.39
2022-08-01T01:37:27.493Z,1007.36
2022-08-01T01:38:27.476Z,1007.36
2022-08-01T01:39:27.494Z,1007.37
2022-08-01T01:40:27.474Z,1007.39
2022-08-01T01:41:27.454Z,1007.40
2022-08-01T01:42:27.430Z,1007.36
2022-08-01T01:43:28.973Z,1007.38
2022-08-01T01:44:27.419Z,1007.38
2022-08-01T01:45:27.401Z,1007.36
2022-08-01T01:46:27.413Z,1007.38
2022-08-01T01:47:27.369Z,1007.38
2022-08-01T01:48:27.364Z,1007.37
2022-08-01T01:49:27.406Z,1007.42
2022-08-01T01:50:27.359Z,1007.43
2022-08-01T01:51:27.355Z,1007.37
2022-08-01T01:52:27.321Z,1007.40
2022-08-01T01:53:27.300Z,1007.39
2022-08-01T01:54:27.300Z,1007.40
2022-08-01T01:55:27.283Z,1007.37
2022-08-01T01:56:27.299Z,1007.36
2022-08-01T01:57:27.257Z,1007.41
2022-08-01T01:58:27.255Z,1007.39
2022-08-01T01:59:27.250Z,1007.39
2022-08-01T02:00:27.259Z,1007.43
2022-08-01T02:01:58.842Z,1007.40
2022-08-01T02:02:27.218Z,1007.42
2022-08-01T02:03:27.195Z,1007.38
2022-08-01T02:04:27.186Z,1007.39
2022-08-01T02:05:27.168Z,1007.40
2022-08-01T02:06:27.186Z,1007.40
2022-08-01T02:07:27.156Z,1007.42
2022-08-01T02:08:27.161Z,1007.40
2022-08-01T02:09:27.120Z,1007.36
2022-08-01T02:10:28.694Z,1007.37
2022-08-01T02:11:27.135Z,1007.40
2022-08-01T02:12:27.101Z,1007.39
2022-08-01T02:13:27.086Z,1007.39
2022-08-01T02:14:27.109Z,1007.41
2022-08-01T02:15:27.059Z,1007.39
2022-08-01T02:16:27.065Z,1007.39
2022-08-01T02:17:27.031Z,1007.38
2022-08-01T02:18:27.027Z,1007.37
2022-08-01T02:19:27.009Z,1007.36
2022-08-01T02:20:27.009Z,1007.45
2022-08-01T02:21:27.008Z,1007.41
2022-08-01T02:22:26.981Z,1007.41
2022-08-01T02:23:26.981Z,1007.44
2022-08-01T02:24:30.667Z,1007.45
2022-08-01T02:25:26.943Z,1007.43
2022-08-01T02:26:26.957Z,1007.45
2022-08-01T02:27:26.927Z,1007.43
2022-08-01T02:28:26.923Z,1007.42
2022-08-01T02:29:26.914Z,1007.43
2022-08-01T02:30:26.897Z,1007.40
2022-08-01T02:31:26.897Z,1007.42
2022-08-01T02:32:26.877Z,1007.40
2022-08-01T02:33:26.872Z,1007.42
2022-08-01T02:34:26.841Z,1007.41
2022-08-01T02:35:26.832Z,1007.43
2022-08-01T02:36:32.352Z,1007.45
2022-08-01T02:37:26.817Z,1007.49
2022-08-01T02:38:26.792Z,1007.47
2022-08-01T02:39:26.793Z,1007.49
2022-08-01T02:40:26.771Z,1007.44
2022-08-01T02:41:26.791Z,1007.51
2022-08-01T02:42:26.752Z,1007.52
2022-08-01T02:43:26.768Z,1007.47
2022-08-01T02:44:26.725Z,1007.51
2022-08-01T02:45:26.727Z,1007.49
2022-08-01T02:46:26.739Z,1007.51
2022-08-01T02:47:26.696Z,1007.49
2022-08-01T02:48:26.685Z,1007.52
2022-08-01T02:49:26.778Z,1007.56
2022-08-01T02:50:26.657Z,1007.57
2022-08-01T02:51:26.675Z,1007.59
2022-08-01T02:52:26.642Z,1007.58
2022-08-01T02:53:44.360Z,1007.56
2022-08-01T02:54:26.621Z,1007.60
2022-08-01T02:55:26.608Z,1007.57
2022-08-01T02:56:26.615Z,1007.57
2022-08-01T02:57:33.566Z,1007.61
2022-08-01T02:58:29.215Z,1007.57
2022-08-01T02:59:26.561Z,1007.60
2022-08-01T03:00:26.546Z,1007.59
2022-08-01T03:01:27.834Z,1007.57
2022-08-01T03:02:26.530Z,1007.57
2022-08-01T03:03:26.536Z,1007.56
2022-08-01T03:04:26.508Z,1007.55
2022-08-01T03:05:26.528Z,1007.59
2022-08-01T03:06:26.517Z,1007.57
2022-08-01T03:07:34.394Z,1007.57
2022-08-01T03:08:26.471Z,1007.57
2022-08-01T03:09:26.455Z,1007.57
2022-08-01T03:10:26.435Z,1007.58
2022-08-01T03:11:26.443Z,1007.61
2022-08-01T03:12:26.409Z,1007.64
2022-08-01T03:13:26.428Z,1007.64
2022-08-01T03:14:26.389Z,1007.66
2022-08-01T03:15:26.380Z,1007.66
2022-08-01T03:16:26.400Z,1007.71
2022-08-01T03:17:26.353Z,1007.68
2022-08-01T03:18:26.343Z,1007.64
2022-08-01T03:19:26.331Z,1007.68
2022-08-01T03:20:26.321Z,1007.66
2022-08-01T03:21:26.330Z,1007.65
2022-08-01T03:22:26.297Z,1007.64
2022-08-01T03:23:38.125Z,1007.64
2022-08-01T03:24:26.288Z,1007.63
2022-08-01T03:25:26.282Z,1007.60
2022-08-01T03:26:26.273Z,1007.59
2022-08-01T03:27:26.251Z,1007.59
2022-08-01T03:28:29.623Z,1007.60
2022-08-01T03:29:26.236Z,1007.59
2022-08-01T03:30:26.205Z,1007.60
2022-08-01T03:31:26.231Z,1007.61
2022-08-01T03:32:26.185Z,1007.63
2022-08-01T03:33:26.173Z,1007.61
2022-08-01T03:34:26.181Z,1007.63
2022-08-01T03:35:26.154Z,1007.63
2022-08-01T03:36:26.180Z,1007.66
2022-08-01T03:37:26.150Z,1007.61
2022-08-01T03:38:26.128Z,1007.62
2022-08-01T03:39:26.122Z,1007.64
2022-08-01T03:40:26.142Z,1007.65
2022-08-01T03:41:26.112Z,1007.68
2022-08-01T03:42:26.072Z,1007.67
2022-08-01T03:43:26.076Z,1007.67
2022-08-01T03:44:26.063Z,1007.68
2022-08-01T03:45:26.055Z,1007.68
2022-08-01T03:46:26.079Z,1007.69
2022-08-01T03:47:26.020Z,1007.64
2022-08-01T03:48:26.005Z,1007.68
2022-08-01T03:49:26.087Z,1007.68
2022-08-01T03:50:25.987Z,1007.70
2022-08-01T03:51:25.997Z,1007.70
2022-08-01T03:52:25.985Z,1007.71
2022-08-01T03:53:25.956Z,1007.70
2022-08-01T03:54:25.939Z,1007.70
2022-08-01T03:55:25.967Z,1007.69
2022-08-01T03:56:25.940Z,1007.68
2022-08-01T03:57:36.117Z,1007.69
2022-08-01T03:58:25.923Z,1007.69
2022-08-01T03:59:25.897Z,1007.70
2022-08-01T04:00:25.881Z,1007.70
2022-08-01T04:01:25.933Z,1007.74
2022-08-01T04:02:25.861Z,1007.71
2022-08-01T04:03:25.861Z,1007.69
2022-08-01T04:04:25.851Z,1007.65
2022-08-01T04:05:25.835Z,1007.68
2022-08-01T04:06:25.836Z,1007.64
2022-08-01T04:07:25.821Z,1007.68
2022-08-01T04:08:27.259Z,1007.68
2022-08-01T04:09:25.788Z,1007.74
2022-08-01T04:10:25.782Z,1007.72
2022-08-01T04:11:25.782Z,1007.73
2022-08-01T04:12:25.741Z,1007.72
2022-08-01T04:13:25.753Z,1007.73
2022-08-01T04:14:25.732Z,1007.76
2022-08-01T04:15:25.712Z,1007.74
2022-08-01T04:16:25.710Z,1007.74
2022-08-01T04:17:25.689Z,1007.75
2022-08-01T04:18:25.664Z,1007.77
2022-08-01T04:19:25.678Z,1007.76
2022-08-01T04:20:25.657Z,1007.75
2022-08-01T04:21:25.668Z,1007.82
2022-08-01T04:22:25.640Z,1007.78
2022-08-01T04:23:25.616Z,1007.78
2022-08-01T04:24:25.609Z,1007.77
2022-08-01T04:25:25.618Z,1007.79
2022-08-01T04:26:25.612Z,1007.76
2022-08-01T04:27:49.072Z,1007.78
2022-08-01T04:28:25.585Z,1007.80
2022-08-01T04:29:25.560Z,1007.79
2022-08-01T04:30:25.725Z,1007.83
2022-08-01T04:31:25.572Z,1007.85
2022-08-01T04:32:25.522Z,1007.88
2022-08-01T04:33:25.508Z,1007.88
2022-08-01T04:34:25.525Z,1007.89
2022-08-01T04:36:04.112Z,1007.89
2022-08-01T04:36:25.501Z,1007.91
2022-08-01T04:37:25.454Z,1007.96
2022-08-01T04:38:25.476Z,1007.94
2022-08-01T04:39:25.440Z,1007.90
2022-08-01T04:40:25.459Z,1007.92
2022-08-01T04:41:25.429Z,1007.90
2022-08-01T04:42:28.135Z,1007.90
2022-08-01T04:43:25.397Z,1007.90
2022-08-01T04:44:27.819Z,1007.89
2022-08-01T04:45:25.372Z,1007.90
2022-08-01T04:46:25.374Z,1007.94
2022-08-01T04:47:25.356Z,1007.93
2022-08-01T04:48:25.340Z,1007.93
2022-08-01T04:49:25.387Z,1007.97
2022-08-01T04:50:25.317Z,1007.98
2022-08-01T04:51:25.324Z,1007.98
2022-08-01T04:52:25.379Z,1008.04
2022-08-01T04:53:25.274Z,1008.00
2022-08-01T04:54:25.260Z,1007.97
2022-08-01T04:55:25.251Z,1007.97
2022-08-01T04:56:25.267Z,1007.98
2022-08-01T04:57:25.225Z,1008.00
2022-08-01T04:58:25.223Z,1008.06
2022-08-01T04:59:25.245Z,1008.03
2022-08-01T05:00:25.205Z,1008.05
2022-08-01T05:01:25.278Z,1008.05
2022-08-01T05:02:25.220Z,1008.08
2022-08-01T05:03:25.187Z,1008.08
2022-08-01T05:04:25.161Z,1008.10
2022-08-01T05:05:25.142Z,1008.08
2022-08-01T05:06:25.161Z,1008.10
2022-08-01T05:07:25.116Z,1008.09
2022-08-01T05:08:25.115Z,1008.12
2022-08-01T05:09:28.216Z,1008.08
2022-08-01T05:10:25.095Z,1008.07
2022-08-01T05:11:25.080Z,1008.11
2022-08-01T05:12:25.069Z,1008.10
2022-08-01T05:13:25.058Z,1008.12
2022-08-01T05:14:25.035Z,1008.11
2022-08-01T05:15:25.135Z,1008.10
2022-08-01T05:16:25.036Z,1008.14
2022-08-01T05:17:25.027Z,1008.11
2022-08-01T05:18:28.523Z,1008.14
2022-08-01T05:19:25.033Z,1008.14
2022-08-01T05:20:24.978Z,1008.14
2022-08-01T05:21:24.987Z,1008.16
2022-08-01T05:22:24.955Z,1008.14
2022-08-01T05:23:38.364Z,1008.16
2022-08-01T05:24:24.942Z,1008.14
2022-08-01T05:25:49.679Z,1008.16
2022-08-01T05:26:24.985Z,1008.19
2022-08-01T05:27:24.891Z,1008.18
2022-08-01T05:28:24.899Z,1008.16
2022-08-01T05:29:24.870Z,1008.16
2022-08-01T05:30:24.858Z,1008.21
2022-08-01T05:31:24.884Z,1008.17
2022-08-01T05:32:24.876Z,1008.21
2022-08-01T05:33:24.881Z,1008.22
2022-08-01T05:34:24.862Z,1008.25
2022-08-01T05:35:24.830Z,1008.26
2022-08-01T05:36:24.859Z,1008.26
2022-08-01T05:37:24.780Z,1008.27
2022-08-01T05:38:24.773Z,1008.30
2022-08-01T05:39:24.748Z,1008.29
2022-08-01T05:40:24.800Z,1008.29
2022-08-01T05:41:24.838Z,1008.30
2022-08-01T05:42:24.748Z,1008.31
2022-08-01T05:43:28.777Z,1008.29
2022-08-01T05:44:24.699Z,1008.31
2022-08-01T05:45:24.717Z,1008.34
2022-08-01T05:46:26.141Z,1008.33
2022-08-01T05:47:24.686Z,1008.30
2022-08-01T05:48:24.656Z,1008.31
2022-08-01T05:49:24.747Z,1008.29
2022-08-01T05:50:24.635Z,1008.32
2022-08-01T05:51:24.668Z,1008.31
2022-08-01T05:52:24.659Z,1008.28
2022-08-01T05:53:24.609Z,1008.30
2022-08-01T05:54:24.586Z,1008.32
2022-08-01T05:55:24.596Z,1008.30
2022-08-01T05:56:24.591Z,1008.38
2022-08-01T05:57:24.561Z,1008.37
2022-08-01T05:58:24.614Z,1008.38
2022-08-01T05:59:24.614Z,1008.38
2022-08-01T06:00:24.543Z,1008.36
2022-08-01T06:01:24.545Z,1008.38
2022-08-01T06:02:24.607Z,1008.40
2022-08-01T06:03:24.511Z,1008.37
2022-08-01T06:04:24.518Z,1008.40
2022-08-01T06:05:24.490Z,1008.39
2022-08-01T06:06:25.408Z,1008.40
2022-08-01T06:07:24.501Z,1008.43
2022-08-01T06:08:24.434Z,1008.42
2022-08-01T06:09:24.458Z,1008.39
2022-08-01T06:10:24.454Z,1008.43
2022-08-01T06:11:24.478Z,1008.40
2022-08-01T06:12:24.464Z,1008.42
2022-08-01T06:13:24.435Z,1008.49
2022-08-01T06:14:24.386Z,1008.47
2022-08-01T06:15:24.390Z,1008.47
2022-08-01T06:16:24.403Z,1008.46
2022-08-01T06:17:24.374Z,1008.50
2022-08-01T06:18:24.448Z,1008.47
2022-08-01T06:19:24.329Z,1008.47
2022-08-01T06:20:24.321Z,1008.48
2022-08-01T06:21:24.397Z,1008.51
2022-08-01T06:22:24.299Z,1008.49
2022-08-01T06:23:31.842Z,1008.50
2022-08-01T06:24:24.265Z,1008.48
2022-08-01T06:25:24.255Z,1008.51
2022-08-01T06:26:24.261Z,1008.55
2022-08-01T06:27:24.222Z,1008.56
2022-08-01T06:28:24.208Z,1008.54
2022-08-01T06:29:24.221Z,1008.55
2022-08-01T06:30:24.193Z,1008.54
2022-08-01T06:31:24.221Z,1008.53
2022-08-01T06:32:26.972Z,1008.52
2022-08-01T06:33:24.186Z,1008.52
2022-08-01T06:34:24.146Z,1008.56
2022-08-01T06:35:24.154Z,1008.57
2022-08-01T06:36:24.168Z,1008.56
2022-08-01T06:37:24.222Z,1008.60
2022-08-01T06:38:24.189Z,1008.56
2022-08-01T06:39:24.148Z,1008.58
2022-08-01T06:40:24.204Z,1008.58
2022-08-01T06:41:24.107Z,1008.59
2022-08-01T06:42:24.114Z,1008.60
2022-08-01T06:43:24.078Z,1008.59
2022-08-01T06:44:24.067Z,1008.63
2022-08-01T06:45:24.065Z,1008.63
2022-08-01T06:46:24.059Z,1008.64
2022-08-01T06:47:24.018Z,1008.63
2022-08-01T06:48:24.019Z,1008.60
2022-08-01T06:49:24.047Z,1008.58
2022-08-01T06:50:23.991Z,1008.62
2022-08-01T06:51:23.969Z,1008.64
2022-08-01T06:52:23.987Z,1008.64
2022-08-01T06:53:23.939Z,1008.64
2022-08-01T06:54:23.928Z,1008.64
2022-08-01T06:55:23.905Z,1008.65
2022-08-01T06:56:23.956Z,1008.63
2022-08-01T06:57:23.889Z,1008.65
2022-08-01T06:58:31.817Z,1008.67
2022-08-01T06:59:23.877Z,1008.64
2022-08-01T07:00:23.842Z,1008.66
2022-08-01T07:01:23.982Z,1008.68
2022-08-01T07:02:23.879Z,1008.64
2022-08-01T07:03:23.820Z,1008.63
2022-08-01T07:04:23.859Z,1008.65
2022-08-01T07:05:23.779Z,1008.65
2022-08-01T07:06:23.935Z,1008.66
2022-08-01T07:07:23.788Z,1008.68
2022-08-01T07:08:23.775Z,1008.67
2022-08-01T07:09:23.766Z,1008.66
2022-08-01T07:10:23.819Z,1008.65
2022-08-01T07:11:23.741Z,1008.68
2022-08-01T07:12:23.711Z,1008.64
2022-08-01T07:13:23.694Z,1008.63
2022-08-01T07:14:23.696Z,1008.66
2022-08-01T07:15:23.696Z,1008.63
2022-08-01T07:16:23.704Z,1008.64
2022-08-01T07:17:23.647Z,1008.62
2022-08-01T07:18:26.313Z,1008.63
2022-08-01T07:19:23.623Z,1008.63
2022-08-01T07:20:23.642Z,1008.67
2022-08-01T07:21:40.536Z,1008.65
2022-08-01T07:22:23.801Z,1008.66
2022-08-01T07:23:24.660Z,1008.64
2022-08-01T07:24:23.597Z,1008.67
2022-08-01T07:25:23.589Z,1008.65
2022-08-01T07:26:23.586Z,1008.66
2022-08-01T07:27:25.720Z,1008.67
2022-08-01T07:28:23.528Z,1008.73
2022-08-01T07:29:23.518Z,1008.69
2022-08-01T07:30:23.514Z,1008.70
2022-08-01T07:31:23.538Z,1008.75
2022-08-01T07:32:23.493Z,1008.73
2022-08-01T07:33:23.523Z,1008.77
2022-08-01T07:34:23.472Z,1008.75
2022-08-01T07:35:23.469Z,1008.75
2022-08-01T07:36:23.464Z,1008.74
2022-08-01T07:37:46.318Z,1008.76
2022-08-01T07:38:23.423Z,1008.76
2022-08-01T07:39:23.419Z,1008.76
2022-08-01T07:40:23.395Z,1008.79
2022-08-01T07:41:45.462Z,1008.79
2022-08-01T07:42:23.378Z,1008.78
2022-08-01T07:43:23.363Z,1008.79
2022-08-01T07:44:23.352Z,1008.83
2022-08-01T07:45:23.348Z,1008.82
2022-08-01T07:46:23.344Z,1008.83
2022-08-01T07:47:23.319Z,1008.83
2022-08-01T07:48:23.339Z,1008.86
2022-08-01T07:49:23.378Z,1008.86
2022-08-01T07:50:23.309Z,1008.89
2022-08-01T07:51:23.304Z,1008.85
2022-08-01T07:52:23.261Z,1008.87
2022-08-01T07:53:23.246Z,1008.89
2022-08-01T07:54:23.237Z,1008.90
2022-08-01T07:55:23.263Z,1008.91
2022-08-01T07:56:23.239Z,1008.90
2022-08-01T07:57:23.200Z,1008.89
2022-08-01T07:58:23.208Z,1008.94
2022-08-01T07:59:26.007Z,1008.93
2022-08-01T08:00:23.209Z,1008.88
2022-08-01T08:01:23.339Z,1008.91
2022-08-01T08:02:23.352Z,1008.92
2022-08-01T08:03:23.151Z,1008.94
2022-08-01T08:04:23.129Z,1008.97
2022-08-01T08:05:57.981Z,1008.94
2022-08-01T08:06:23.156Z,1008.96
2022-08-01T08:07:23.108Z,1008.97
2022-08-01T08:08:23.104Z,1008.98
2022-08-01T08:09:23.097Z,1009.01
2022-08-01T08:10:23.083Z,1009.02
2022-08-01T08:11:23.078Z,1009.01
2022-08-01T08:12:28.898Z,1009.06
2022-08-01T08:13:23.052Z,1009.04
2022-08-01T08:14:23.060Z,1009.07
2022-08-01T08:15:23.043Z,1009.09
2022-08-01T08:16:23.017Z,1009.09
2022-08-01T08:17:23.011Z,1009.11
2022-08-01T08:18:22.999Z,1009.06
2022-08-01T08:19:22.966Z,1009.10
2022-08-01T08:20:22.985Z,1009.08
2022-08-01T08:21:22.959Z,1009.06
2022-08-01T08:22:22.955Z,1009.11
2022-08-01T08:23:26.469Z,1009.07
2022-08-01T08:24:26.238Z,1009.09
2022-08-01T08:25:22.899Z,1009.08
2022-08-01T08:26:22.938Z,1009.09
2022-08-01T08:27:22.883Z,1009.13
2022-08-01T08:28:26.509Z,1009.11
2022-08-01T08:29:22.888Z,1009.14
2022-08-01T08:30:22.854Z,1009.12
2022-08-01T08:31:24.855Z,1009.15
2022-08-01T08:32:22.827Z,1009.16
2022-08-01T08:33:22.813Z,1009.16
2022-08-01T08:34:22.811Z,1009.17
2022-08-01T08:35:23.078Z,1009.18
2022-08-01T08:36:30.852Z,1009.19
2022-08-01T08:37:22.763Z,1009.18
2022-08-01T08:38:28.357Z,1009.17
2022-08-01T08:39:22.779Z,1009.17
2022-08-01T08:40:22.722Z,1009.21
2022-08-01T08:41:22.783Z,1009.20
2022-08-01T08:42:22.699Z,1009.21
2022-08-01T08:43:22.709Z,1009.22
2022-08-01T08:44:22.763Z,1009.22
2022-08-01T08:45:22.674Z,1009.22
2022-08-01T08:46:27.977Z,1009.20
2022-08-01T08:47:22.666Z,1009.20
2022-08-01T08:48:26.031Z,1009.25
2022-08-01T08:49:22.768Z,1009.29
2022-08-01T08:50:22.692Z,1009.26
2022-08-01T08:51:22.640Z,1009.25
2022-08-01T08:52:22.598Z,1009.27
2022-08-01T08:53:22.610Z,1009.30
2022-08-01T08:54:22.596Z,1009.30
2022-08-01T08:55:22.576Z,1009.32
2022-08-01T08:56:22.606Z,1009.27
2022-08-01T08:57:22.559Z,1009.31
2022-08-01T08:58:26.275Z,1009.28
2022-08-01T08:59:22.593Z,1009.30
2022-08-01T09:00:22.563Z,1009.30
2022-08-01T09:01:22.765Z,1009.32
2022-08-01T09:02:22.534Z,1009.32
2022-08-01T09:03:22.567Z,1009.32
2022-08-01T09:04:22.714Z,1009.31
2022-08-01T09:05:22.503Z,1009.34
2022-08-01T09:06:22.494Z,1009.40
2022-08-01T09:07:22.454Z,1009.37
2022-08-01T09:08:22.472Z,1009.39
2022-08-01T09:09:22.404Z,1009.41
2022-08-01T09:10:22.423Z,1009.41
2022-08-01T09:11:23.170Z,1009.44
2022-08-01T09:12:22.402Z,1009.46
2022-08-01T09:13:22.403Z,1009.44
2022-08-01T09:14:22.383Z,1009.45
2022-08-01T09:15:22.361Z,1009.48
2022-08-01T09:16:22.360Z,1009.48
2022-08-01T09:17:22.357Z,1009.51
2022-08-01T09:18:22.325Z,1009.53
2022-08-01T09:19:39.812Z,1009.55
2022-08-01T09:20:22.302Z,1009.57
2022-08-01T09:21:22.327Z,1009.58
2022-08-01T09:22:22.432Z,1009.62
2022-08-01T09:23:22.295Z,1009.65
2022-08-01T09:24:28.410Z,1009.63
2022-08-01T09:25:22.248Z,1009.63
2022-08-01T09:26:22.259Z,1009.68
2022-08-01T09:27:22.778Z,1009.65
2022-08-01T09:28:22.208Z,1009.69
2022-08-01T09:29:29.007Z,1009.72
2022-08-01T09:30:23.769Z,1009.73
2022-08-01T09:31:22.252Z,1009.70
2022-08-01T09:32:22.164Z,1009.74
2022-08-01T09:33:22.223Z,1009.75
2022-08-01T09:34:22.150Z,1009.73
2022-08-01T09:35:22.121Z,1009.77
2022-08-01T09:36:22.135Z,1009.81
2022-08-01T09:37:24.165Z,1009.78
2022-08-01T09:38:22.119Z,1009.77
2022-08-01T09:39:22.128Z,1009.80
2022-08-01T09:40:22.124Z,1009.84
2022-08-01T09:41:22.105Z,1009.84
2022-08-01T09:42:28.672Z,1009.82
2022-08-01T09:43:22.083Z,1009.86
2022-08-01T09:44:31.145Z,1009.87
2022-08-01T09:45:23.735Z,1009.87
2022-08-01T09:46:22.029Z,1009.92
2022-08-01T09:47:23.882Z,1009.95
2022-08-01T09:48:22.471Z,1009.90
2022-08-01T09:49:22.133Z,1009.96
2022-08-01T09:50:21.992Z,1009.94
2022-08-01T09:51:59.201Z,1009.95
2022-08-01T09:52:25.996Z,1009.95
2022-08-01T09:53:29.631Z,1009.96
2022-08-01T09:54:21.941Z,1009.92
2022-08-01T09:55:21.980Z,1010.00
2022-08-01T09:56:22.033Z,1009.99
2022-08-01T09:57:21.902Z,1010.04
2022-08-01T09:58:21.888Z,1010.03
2022-08-01T09:59:21.870Z,1010.02
2022-08-01T10:00:43.801Z,1010.04
2022-08-01T10:01:21.865Z,1010.07
2022-08-01T10:02:21.845Z,1010.08
2022-08-01T10:03:21.964Z,1010.07
2022-08-01T10:04:21.803Z,1010.09
2022-08-01T10:05:21.829Z,1010.08
2022-08-01T10:06:24.800Z,1010.10
2022-08-01T10:07:21.784Z,1010.13
2022-08-01T10:08:23.118Z,1010.13
2022-08-01T10:09:21.742Z,1010.12
2022-08-01T10:10:21.762Z,1010.12
2022-08-01T10:11:21.765Z,1010.10
2022-08-01T10:12:21.765Z,1010.13
2022-08-01T10:13:21.706Z,1010.16
2022-08-01T10:14:21.734Z,1010.15
2022-08-01T10:15:21.702Z,1010.16
2022-08-01T10:16:21.730Z,1010.14
2022-08-01T10:17:22.770Z,1010.14
2022-08-01T10:18:26.446Z,1010.13
2022-08-01T10:19:21.671Z,1010.16
2022-08-01T10:20:29.958Z,1010.12
2022-08-01T10:21:53.213Z,1010.13
2022-08-01T10:22:21.656Z,1010.13
2022-08-01T10:23:21.582Z,1010.03
2022-08-01T10:24:21.598Z,1010.07
2022-08-01T10:25:42.851Z,1010.06
2022-08-01T10:26:21.595Z,1010.06
2022-08-01T10:27:35.836Z,1010.06
2022-08-01T10:28:24.070Z,1010.10
2022-08-01T10:29:24.211Z,1010.10
2022-08-01T10:30:23.739Z,1010.12
2022-08-01T10:31:30.931Z,1010.15
2022-08-01T10:32:21.511Z,1010.12
2022-08-01T10:33:49.852Z,1010.13
2022-08-01T10:34:22.954Z,1010.15
2022-08-01T10:35:46.555Z,1010.18
2022-08-01T10:36:21.470Z,1010.12
2022-08-01T10:37:21.454Z,1010.18
2022-08-01T10:38:21.447Z,1010.19
2022-08-01T10:39:21.428Z,1010.20
2022-08-01T10:40:37.045Z,1010.19
2022-08-01T10:41:21.429Z,1010.20
2022-08-01T10:42:21.401Z,1010.22
2022-08-01T10:43:22.204Z,1010.23
2022-08-01T10:44:21.347Z,1010.21
2022-08-01T10:45:21.443Z,1010.27
2022-08-01T10:46:21.376Z,1010.20
2022-08-01T10:47:26.831Z,1010.21
2022-08-01T10:48:21.327Z,1010.22
2022-08-01T10:49:21.397Z,1010.22
2022-08-01T10:50:21.844Z,1010.20
2022-08-01T10:51:21.319Z,1010.16
2022-08-01T10:52:21.273Z,1010.18
2022-08-01T10:53:23.304Z,1010.16
2022-08-01T10:54:21.266Z,1010.18
2022-08-01T10:55:21.247Z,1010.19
2022-08-01T10:56:21.247Z,1010.21
2022-08-01T10:57:22.947Z,1010.23
2022-08-01T10:58:21.204Z,1010.25
2022-08-01T10:59:49.098Z,1010.20
2022-08-01T11:00:21.196Z,1010.20
2022-08-01T11:01:21.337Z,1010.22
2022-08-01T11:02:21.157Z,1010.21
2022-08-01T11:03:35.843Z,1010.19
2022-08-01T11:04:21.137Z,1010.24
2022-08-01T11:05:21.114Z,1010.21
2022-08-01T11:06:21.139Z,1010.23
2022-08-01T11:07:21.125Z,1010.22
2022-08-01T11:08:21.125Z,1010.21
2022-08-01T11:09:21.140Z,1010.21
2022-08-01T11:10:23.753Z,1010.25
2022-08-01T11:11:21.074Z,1010.24
2022-08-01T11:12:24.552Z,1010.24
2022-08-01T11:13:21.029Z,1010.27
2022-08-01T11:14:26.374Z,1010.25
2022-08-01T11:15:29.612Z,1010.22
2022-08-01T11:16:24.149Z,1010.25
2022-08-01T11:17:21.005Z,1010.26
2022-08-01T11:18:20.946Z,1010.27
2022-08-01T11:19:21.034Z,1010.24
2022-08-01T11:20:20.934Z,1010.24
2022-08-01T11:21:58.541Z,1010.26
2022-08-01T11:22:25.249Z,1010.25
2022-08-01T11:23:21.637Z,1010.23
2022-08-01T11:24:20.910Z,1010.23
2022-08-01T11:25:20.922Z,1010.25
2022-08-01T11:26:29.025Z,1010.27
2022-08-01T11:27:23.677Z,1010.24
2022-08-01T11:28:29.045Z,1010.28
2022-08-01T11:29:22.312Z,1010.29
2022-08-01T11:30:21.416Z,1010.29
2022-08-01T11:31:20.860Z,1010.33
2022-08-01T11:32:20.796Z,1010.36
2022-08-01T11:33:20.826Z,1010.39
2022-08-01T11:34:20.790Z,1010.40
2022-08-01T11:35:20.769Z,1010.41
2022-08-01T11:36:36.812Z,1010.39
2022-08-01T11:37:20.774Z,1010.42
2022-08-01T11:38:20.783Z,1010.40
2022-08-01T11:39:20.719Z,1010.43
2022-08-01T11:40:20.713Z,1010.41
2022-08-01T11:41:20.716Z,1010.42
2022-08-01T11:42:20.925Z,1010.37
2022-08-01T11:43:20.692Z,1010.39
2022-08-01T11:44:20.907Z,1010.41
2022-08-01T11:45:20.646Z,1010.36
2022-08-01T11:46:20.700Z,1010.38
2022-08-01T11:47:21.178Z,1010.40
2022-08-01T11:48:20.642Z,1010.40
2022-08-01T11:49:20.724Z,1010.41
2022-08-01T11:50:20.618Z,1010.36
2022-08-01T11:51:25.642Z,1010.34
2022-08-01T11:52:20.692Z,1010.35
2022-08-01T11:53:22.073Z,1010.36
2022-08-01T11:54:35.305Z,1010.33
2022-08-01T11:55:20.553Z,1010.33
2022-08-01T11:56:20.546Z,1010.33
2022-08-01T11:57:22.854Z,1010.30
2022-08-01T11:58:22.410Z,1010.28
2022-08-01T11:59:20.518Z,1010.28
2022-08-01T12:00:20.487Z,1010.29
2022-08-01T12:01:20.483Z,1010.28
2022-08-01T12:02:30.213Z,1010.28
2022-08-01T12:03:33.087Z,1010.29
2022-08-01T12:04:20.455Z,1010.30
2022-08-01T12:05:20.445Z,1010.28